Flight Track Log - Related Links

Times and Time Zones

All times are in EDT time to prevent confusion due to time zone crossing. See the SWA1802 flight status page for this flight to view local times or setup timezone preferences in your user account.

Time Position Orientation Groundspeed Altitude Reporting Facility
EDT Latitude Longitude Course Direction KTS MPH feet Rate Location/Type
Sun 09:50:25 PM 36.1281 -95.8875 184° South 196 226 3,200  Level Kansas City Center
Sun 09:51:25 PM 36.0792 -95.9300 215° Southwest 262 302 5,600 2,571 Climbing Kansas City Center
Sun 09:52:24 PM 36.0453 -96.0111 243° Southwest 262 302 8,300 2,479 Climbing Kansas City Center
Sun 09:53:26 PM 36.0431 -96.1075 268° West 285 328 10,600 1,645 Climbing Kansas City Center
Sun 09:54:28 PM 36.0497 -96.2228 274° West 324 373 11,700 1,659 Climbing Kansas City Center
Sun 09:55:29 PM 36.0575 -96.3556 274° West 370 426 14,000 2,244 Climbing Kansas City Center
Sun 09:56:31 PM 36.0658 -96.4900 274° West 388 447 16,300 2,293 Climbing Kansas City Center
Sun 09:57:32 PM 36.0739 -96.6303 274° West 401 461 18,700 1,619 Climbing Kansas City Center
Sun 10:03:26 PM 35.9200 -97.4580 274° West 457 526 27,500 1,519 Climbing FlightAware ADS-B
Sun 10:04:03 PM 35.8930 -97.5870 256° West 454 522 28,600 1,714 Climbing FlightAware ADS-B
Sun 10:04:50 PM 35.8680 -97.7070 256° West 448 516 29,900 1,483 Climbing FlightAware ADS-B
Sun 10:05:32 PM 35.8460 -97.8120 256° West 445 512 30,800 1,241 Climbing FlightAware ADS-B
Sun 10:06:17 PM 35.8230 -97.9180 255° West 444 511 31,700 1,186 Climbing FlightAware ADS-B
Sun 10:06:58 PM 35.8070 -98.0220 259° West 440 506 32,500 1,139 Climbing FlightAware ADS-B
Sun 10:07:36 PM 35.8070 -98.1170 270° West 439 505 33,200 1,050 Climbing FlightAware ADS-B
Sun 10:08:18 PM 35.8080 -98.2190 271° West 437 503 33,900 1,024 Climbing FlightAware ADS-B
Sun 10:08:58 PM 35.8090 -98.3170 271° West 434 499 34,600 1,105 Climbing FlightAware ADS-B
Sun 10:09:34 PM 35.8100 -98.4080 271° West 433 498 35,300 1,063 Climbing FlightAware ADS-B
Sun 10:10:17 PM 35.8120 -98.5130 271° West 429 494 36,000 512 Climbing FlightAware ADS-B
Sun 10:10:56 PM 35.8130 -98.6070 271° West 428 493 36,000  Level FlightAware ADS-B
Sun 10:14:20 PM 35.8120 -99.0310 270° West 428 493 36,000  Level FlightAware ADS-B
Sun 10:15:08 PM 35.8120 -99.1300 270° West 428 493 36,000  Level FlightAware ADS-B
Sun 10:15:44 PM 35.8120 -99.2050 270° West 428 493 36,000  Level FlightAware ADS-B
Sun 10:16:57 PM 35.8120 -99.3560 270° West 428 493 36,000  Level FlightAware ADS-B
Sun 10:17:33 PM 35.8120 -99.4310 270° West 428 493 36,000  Level FlightAware ADS-B
Sun 10:18:33 PM 35.8120 -99.5560 270° West 428 493 36,000  Level FlightAware ADS-B
Sun 10:19:09 PM 35.8120 -99.6300 270° West 428 493 36,000  Level FlightAware ADS-B
Sun 10:19:58 PM 35.8120 -99.7320 270° West 428 493 36,000  Level FlightAware ADS-B
Sun 10:20:34 PM 35.8120 -99.8070 270° West 428 493 36,000  Level FlightAware ADS-B
Sun 10:21:24 PM 35.8203 -100.1133 270° West 428 493 36,000  Level Albuquerque Center
Sun 10:22:25 PM 35.8178 -100.2592 269° West 426 490 36,000  Level Albuquerque Center
Sun 10:23:27 PM 35.8194 -100.4069 271° West 429 494 36,000  Level Albuquerque Center
Sun 10:24:28 PM 35.8167 -100.5528 269° West 428 493 36,000  Level Albuquerque Center
Sun 10:25:29 PM 35.8144 -100.6992 269° West 428 493 36,000  Level Albuquerque Center
Sun 10:26:30 PM 35.8122 -100.8469 269° West 430 495 36,000  Level Albuquerque Center
Sun 10:27:31 PM 35.8114 -101.0136 270° West 430 495 36,000  Level Albuquerque Center
Sun 10:28:33 PM 35.8111 -101.1592 270° West 429 494 36,000  Level Albuquerque Center
Sun 10:29:34 PM 35.8092 -101.3047 269° West 428 493 36,000  Level Albuquerque Center
Sun 10:30:35 PM 35.8067 -101.4486 269° West 426 490 36,000  Level Albuquerque Center
Sun 10:31:36 PM 35.8028 -101.5922 268° West 424 488 36,000  Level Albuquerque Center
Sun 10:32:38 PM 35.7986 -101.7358 268° West 424 488 36,000  Level Albuquerque Center
Sun 10:33:39 PM 35.7944 -101.9103 268° West 427 491 36,000  Level Albuquerque Center
Sun 10:34:40 PM 35.7894 -102.0575 268° West 432 497 36,000  Level Albuquerque Center
Sun 10:35:41 PM 35.7850 -102.2025 268° West 429 494 36,000  Level Albuquerque Center
Sun 10:36:43 PM 35.7803 -102.3494 268° West 430 495 36,000  Level Albuquerque Center
Sun 10:37:44 PM 35.7753 -102.4958 268° West 431 496 36,000  Level Albuquerque Center
Sun 10:38:45 PM 35.7706 -102.6431 268° West 432 497 36,000  Level Albuquerque Center
Sun 10:39:46 PM 35.7650 -102.7914 267° West 434 499 36,000  Level Albuquerque Center
Sun 10:40:48 PM 35.7597 -102.9433 268° West 435 501 36,000  Level Albuquerque Center
Sun 10:41:49 PM 35.7542 -103.0936 267° West 436 502 36,000  Level Albuquerque Center
Sun 10:42:50 PM 35.7469 -103.2689 267° West 436 502 36,000  Level Albuquerque Center
Sun 10:43:51 PM 35.7419 -103.4192 268° West 436 502 36,000  Level Albuquerque Center
Sun 10:44:53 PM 35.7361 -103.5692 267° West 437 503 36,000  Level Albuquerque Center
Sun 10:45:54 PM 35.7281 -103.7167 266° West 433 498 36,000  Level Albuquerque Center
Sun 10:46:55 PM 35.7214 -103.8636 267° West 430 495 36,000  Level Albuquerque Center
Sun 10:47:56 PM 35.7156 -104.0103 267° West 429 494 36,000  Level Albuquerque Center
Sun 10:48:58 PM 35.7067 -104.1575 266° West 431 496 36,000  Level Albuquerque Center
Sun 10:49:59 PM 35.6928 -104.3053 263° West 434 499 36,000  Level Albuquerque Center
Sun 10:51:00 PM 35.6792 -104.4544 264° West 438 504 36,000  Level Albuquerque Center
Sun 10:52:01 PM 35.6664 -104.6031 264° West 437 503 36,000  Level Albuquerque Center
Sun 10:53:02 PM 35.6519 -104.7533 263° West 440 506 36,000  Level Albuquerque Center
Sun 10:54:04 PM 35.6344 -104.9294 263° West 443 510 36,000  Level Albuquerque Center
Sun 10:59:53 PM 35.5500 -105.8090 263° West 449 517 36,000  Level FlightAware ADS-B
Sun 11:00:25 PM 35.5410 -105.8920 262° West 450 518 36,000  Level FlightAware ADS-B
Sun 11:01:08 PM 35.5300 -105.9990 263° West 453 521 36,000  Level FlightAware ADS-B
Sun 11:01:52 PM 35.5190 -106.1120 263° West 454 522 36,000  Level FlightAware ADS-B
Sun 11:02:24 PM 35.5100 -106.1920 262° West 455 524 36,000  Level FlightAware ADS-B
Sun 11:03:08 PM 35.4980 -106.3060 263° West 455 524 36,000  Level FlightAware ADS-B
Sun 11:03:48 PM 35.4870 -106.4090 263° West 455 524 36,000  Level FlightAware ADS-B
Sun 11:04:32 PM 35.4760 -106.5190 263° West 455 524 36,000  Level FlightAware ADS-B
Sun 11:05:14 PM 35.4640 -106.6300 262° West 453 521 36,000  Level FlightAware ADS-B
Sun 11:05:58 PM 35.4520 -106.7410 262° West 454 522 36,000 289 Level FlightAware ADS-B
Sun 11:06:37 PM 35.4410 -106.8380 262° West 452 520 36,400 900 Climbing FlightAware ADS-B
Sun 11:07:18 PM 35.4290 -106.9420 262° West 447 514 37,200 1,091 Climbing FlightAware ADS-B
Sun 11:07:54 PM 35.4190 -107.0320 262° West 444 511 37,800 600 Climbing FlightAware ADS-B
Sun 11:08:38 PM 35.4070 -107.1400 262° West 448 516 38,000 152 Climbing FlightAware ADS-B
Sun 11:09:13 PM 35.3970 -107.2300 262° West 449 517 38,000  Level FlightAware ADS-B
Sun 11:10:01 PM 35.3830 -107.3510 262° West 448 516 38,000  Level FlightAware ADS-B
Sun 11:10:43 PM 35.3710 -107.4550 262° West 449 517 38,000  Level FlightAware ADS-B
Sun 11:11:37 PM 35.3560 -107.5910 262° West 451 519 38,000  Level FlightAware ADS-B
Sun 11:12:17 PM 35.3440 -107.6900 262° West 452 520 38,000  Level FlightAware ADS-B
Sun 11:12:55 PM 35.3340 -107.7710 261° West 452 520 38,000  Level FlightAware ADS-B
Sun 11:13:42 PM 35.3200 -107.8730 260° West 452 520 38,000  Level FlightAware ADS-B
Sun 11:14:30 PM 35.3070 -107.9760 261° West 452 520 38,000  Level FlightAware ADS-B
Sun 11:15:06 PM 35.2970 -108.0530 261° West 452 520 38,000  Level FlightAware ADS-B
Sun 11:15:54 PM 35.2840 -108.1560 261° West 452 520 38,000  Level FlightAware ADS-B
Sun 11:16:42 PM 35.2700 -108.2600 261° West 452 520 38,000  Level FlightAware ADS-B
Sun 11:17:18 PM 35.2600 -108.3370 261° West 452 520 38,000  Level FlightAware ADS-B
Sun 11:18:06 PM 35.2470 -108.4400 261° West 452 520 38,000  Level FlightAware ADS-B
Sun 11:18:44 PM 35.2250 -108.6720 263° West 451 519 38,000  Level FlightAware ADS-B
Sun 11:19:28 PM 35.2110 -108.7800 261° West 447 514 38,000  Level FlightAware ADS-B
Sun 11:20:08 PM 35.1980 -108.8800 261° West 446 513 38,000  Level FlightAware ADS-B
Sun 11:20:52 PM 35.1840 -108.9900 261° West 446 513 38,000  Level FlightAware ADS-B
Sun 11:21:34 PM 35.1710 -109.0920 261° West 446 513 38,000  Level FlightAware ADS-B
Sun 11:22:18 PM 35.1570 -109.2040 261° West 446 513 38,000  Level FlightAware ADS-B
Sun 11:22:58 PM 35.1450 -109.2960 261° West 448 516 38,000  Level FlightAware ADS-B
Sun 11:23:38 PM 35.1310 -109.4010 261° West 451 519 38,000  Level FlightAware ADS-B
Sun 11:24:22 PM 35.1160 -109.5130 261° West 455 524 38,000  Level FlightAware ADS-B
Sun 11:25:02 PM 35.1030 -109.6120 261° West 457 526 38,000  Level FlightAware ADS-B
Sun 11:25:46 PM 35.0870 -109.7260 260° West 457 526 38,000  Level FlightAware ADS-B
Sun 11:26:26 PM 35.0730 -109.8300 261° West 457 526 38,000  Level FlightAware ADS-B
Sun 11:27:10 PM 35.0580 -109.9410 261° West 459 528 38,000  Level FlightAware ADS-B
Sun 11:27:50 PM 35.0440 -110.0430 261° West 459 528 38,000  Level FlightAware ADS-B
Sun 11:28:26 PM 35.0310 -110.1360 260° West 461 531 38,000  Level FlightAware ADS-B
Sun 11:29:10 PM 35.0160 -110.2460 261° West 461 531 38,000  Level FlightAware ADS-B
Sun 11:29:50 PM 35.0010 -110.3500 260° West 461 531 38,000  Level FlightAware ADS-B
Sun 11:30:24 PM 34.9890 -110.4380 261° West 459 528 38,000  Level FlightAware ADS-B
Sun 11:31:06 PM 34.9740 -110.5430 260° West 457 526 38,000  Level FlightAware ADS-B
Sun 11:31:50 PM 34.9580 -110.6540 260° West 456 525 38,000  Level FlightAware ADS-B
Sun 11:32:31 PM 34.9440 -110.7570 261° West 456 525 38,000  Level FlightAware ADS-B
Sun 11:33:14 PM 34.9280 -110.8670 260° West 451 519 38,000  Level FlightAware ADS-B
Sun 11:33:54 PM 34.9130 -110.9680 260° West 448 516 38,000  Level FlightAware ADS-B
Sun 11:34:38 PM 34.8970 -111.0760 260° West 446 513 38,000  Level FlightAware ADS-B
Sun 11:35:14 PM 34.8840 -111.1650 260° West 445 512 38,000  Level FlightAware ADS-B
Sun 11:35:55 PM 34.8700 -111.2640 260° West 449 517 38,000  Level FlightAware ADS-B
Sun 11:36:38 PM 34.8530 -111.3730 259° West 452 520 38,000  Level FlightAware ADS-B
Sun 11:37:14 PM 34.8400 -111.4640 260° West 452 520 38,000  Level FlightAware ADS-B
Sun 11:37:54 PM 34.8250 -111.5630 260° West 451 519 38,000  Level FlightAware ADS-B
Sun 11:38:36 PM 34.8090 -111.6670 259° West 451 519 38,000  Level FlightAware ADS-B
Sun 11:39:16 PM 34.7940 -111.7670 260° West 450 518 38,000  Level FlightAware ADS-B
Sun 11:40:00 PM 34.7770 -111.8770 259° West 450 518 38,000  Level FlightAware ADS-B
Sun 11:40:44 PM 34.7600 -111.9870 259° West 450 518 38,000  Level FlightAware ADS-B
Sun 11:41:22 PM 34.7450 -112.0810 259° West 452 520 38,000  Level FlightAware ADS-B
Sun 11:42:08 PM 34.7280 -112.1950 260° West 453 521 38,000  Level FlightAware ADS-B
Sun 11:42:40 PM 34.7150 -112.2760 259° West 452 520 38,000  Level FlightAware ADS-B
Sun 11:43:24 PM 34.6980 -112.3850 259° West 454 522 38,000  Level FlightAware ADS-B
Sun 11:44:05 PM 34.6820 -112.4870 259° West 453 521 38,000  Level FlightAware ADS-B
Sun 11:44:41 PM 34.6670 -112.5760 258° West 452 520 38,000  Level FlightAware ADS-B
Sun 11:45:21 PM 34.6520 -112.6750 260° West 449 517 38,000  Level FlightAware ADS-B
Sun 11:46:05 PM 34.6340 -112.7830 259° West 447 514 38,000  Level FlightAware ADS-B
Sun 11:46:49 PM 34.6160 -112.8920 259° West 447 514 38,000  Level FlightAware ADS-B
Sun 11:47:27 PM 34.6010 -112.9860 259° West 447 514 38,000  Level FlightAware ADS-B
Sun 11:48:12 PM 34.5830 -113.0970 259° West 448 516 38,000  Level FlightAware ADS-B
Sun 11:48:52 PM 34.5670 -113.1950 259° West 448 516 38,000  Level FlightAware ADS-B
Sun 11:49:36 PM 34.5490 -113.3020 258° West 448 516 38,000  Level FlightAware ADS-B
Sun 11:50:16 PM 34.5330 -113.4020 259° West 449 517 38,000  Level FlightAware ADS-B
Sun 11:51:00 PM 34.5150 -113.5100 259° West 450 518 38,000  Level FlightAware ADS-B
Sun 11:51:40 PM 34.4980 -113.6080 258° West 452 520 38,000  Level FlightAware ADS-B
Sun 11:52:24 PM 34.4790 -113.7180 258° West 453 521 38,000  Level FlightAware ADS-B
Sun 11:53:04 PM 34.4630 -113.8180 259° West 456 525 38,000  Level FlightAware ADS-B
Sun 11:53:40 PM 34.4510 -113.9070 261° West 457 526 38,000  Level FlightAware ADS-B
Sun 11:54:20 PM 34.4370 -114.0090 261° West 458 527 38,000  Level FlightAware ADS-B
Sun 11:55:06 PM 34.4200 -114.1260 260° West 457 526 38,000  Level FlightAware ADS-B
Sun 11:55:46 PM 34.4060 -114.2260 260° West 457 526 38,000 -366 Level FlightAware ADS-B
Sun 11:56:28 PM 34.3900 -114.3330 260° West 457 526 37,500 -786 Descending FlightAware ADS-B
Sun 11:57:10 PM 34.3750 -114.4360 260° West 457 526 36,900 -918 Descending FlightAware ADS-B
Sun 11:57:53 PM 34.3590 -114.5450 260° West 460 529 36,200 -973 Descending FlightAware ADS-B
Sun 11:58:24 PM 34.3480 -114.6230 260° West 466 536 35,700 -429 Descending FlightAware ADS-B
Sun 11:59:03 PM 34.3340 -114.7080 259° West 466 536 35,700 -940 Level FlightAware ADS-B
Sun 11:59:47 PM 34.3160 -114.8360 260° West 465 535 34,400 -963 Descending FlightAware ADS-B
Mon 12:00:24 AM 34.3030 -114.9160 259° West 465 535 34,400  Level FlightAware ADS-B
Mon 12:01:24 AM 34.2820 -115.0470 259° West 465 535 34,400 -1,134 Level FlightAware ADS-B
Mon 12:02:31 AM 34.2530 -115.2570 261° West 468 539 32,000 -1,321 Descending FlightAware ADS-B
Mon 12:03:13 AM 34.2360 -115.3640 259° West 460 529 32,000  Level FlightAware ADS-B
Mon 12:03:57 AM 34.2190 -115.4780 260° West 473 544 32,000  Level FlightAware ADS-B
Mon 12:04:36 AM 34.2040 -115.5740 259° West 472 543 32,000  Level FlightAware ADS-B
Mon 12:05:26 AM 34.1830 -115.7050 259° West 473 544 32,000  Level FlightAware ADS-B
Mon 12:06:11 AM 34.1670 -115.8100 260° West 473 544 32,000  Level FlightAware ADS-B
Mon 12:06:47 AM 34.1500 -115.9180 259° West 474 545 32,000 -243 Level FlightAware ADS-B
Mon 12:07:25 AM 34.1350 -116.0120 259° West 476 548 31,700 -732 Descending FlightAware ADS-B
Mon 12:08:09 AM 34.1160 -116.1310 259° West 479 551 31,000 -1,071 Descending FlightAware ADS-B
Mon 12:08:49 AM 34.0990 -116.2340 259° West 481 554 30,200 -1,929 Descending FlightAware ADS-B
Mon 12:09:33 AM 34.0800 -116.3520 259° West 473 544 28,300 -2,429 Descending FlightAware ADS-B
Mon 12:10:13 AM 34.0640 -116.4540 259° West 462 532 26,800 -2,214 Descending FlightAware ADS-B
Mon 12:10:57 AM 34.0460 -116.5610 259° West 449 517 25,200 -2,169 Descending FlightAware ADS-B
Mon 12:11:36 AM 34.0300 -116.6550 258° West 437 503 23,800 -2,100 Descending FlightAware ADS-B
Mon 12:12:17 AM 34.0140 -116.7530 259° West 426 490 22,400 -2,074 Descending FlightAware ADS-B
Mon 12:12:57 AM 33.9990 -116.8460 259° West 415 478 21,000 -2,025 Descending FlightAware ADS-B
Mon 12:13:37 AM 33.9840 -116.9370 259° West 405 466 19,700 -1,926 Descending FlightAware ADS-B
Mon 12:14:18 AM 33.9690 -117.0240 258° West 394 453 18,400 -1,974 Descending FlightAware ADS-B
Mon 12:14:53 AM 33.9560 -117.0990 258° West 391 450 17,200 -1,425 Descending FlightAware ADS-B
Mon 12:15:38 AM 33.9480 -117.1900 264° West 360 414 16,500 -1,341 Descending FlightAware ADS-B
Mon 12:16:18 AM 33.9410 -117.2710 264° West 354 407 15,300 -1,737 Descending FlightAware ADS-B
Mon 12:16:54 AM 33.9350 -117.3410 264° West 349 402 14,300 -1,688 Descending FlightAware ADS-B
Mon 12:17:22 AM 33.9390 -117.3950 275° West 343 395 13,500 -1,667 Descending FlightAware ADS-B
Mon 12:18:06 AM 33.9660 -117.4700 293° West 335 386 12,300 -1,714 Descending FlightAware ADS-B
Mon 12:18:46 AM 33.9900 -117.5390 293° West 331 381 11,100 -1,429 Descending FlightAware ADS-B
Mon 12:19:30 AM 34.0120 -117.6130 290° West 315 362 10,300 -971 Descending FlightAware ADS-B
Mon 12:19:54 AM 34.0100 -117.6520 266° West 307 353 10,000 -981 Descending FlightAware ADS-B
Mon 12:21:14 AM 33.9960 -117.7900 263° West 298 343 8,600 -1,055 Descending FlightAware ADS-B
Mon 12:21:25 AM 33.9950 -117.8060 266° West 297 342 8,400 -1,350 Descending FlightAware ADS-B
Mon 12:21:54 AM 33.9900 -117.8550 263° West 296 341 7,700 -1,474 Descending FlightAware ADS-B
Mon 12:22:22 AM 33.9860 -117.9000 264° West 291 335 7,000 -1,364 Descending FlightAware ADS-B
Mon 12:22:38 AM 33.9830 -117.9260 262° West 287 330 6,700 -1,050 Descending FlightAware ADS-B
Mon 12:23:02 AM 33.9800 -117.9640 265° West 278 320 6,300 -791 Descending FlightAware ADS-B
Mon 12:24:09 AM 33.9720 -118.0460 263° West 275 316 5,500 -1,133 Descending FlightAware ADS-B
Mon 12:24:32 AM 33.9660 -118.1010 263° West 277 319 4,600 -1,745 Descending FlightAware ADS-B
Mon 12:25:04 AM 33.9610 -118.1470 263° West 268 308 3,900 -1,400 Descending FlightAware ADS-B
Mon 12:25:32 AM 33.9570 -118.1890 263° West 241 277 3,200 -1,385 Descending FlightAware ADS-B
Mon 12:25:56 AM 33.9540 -118.2180 263° West 223 257 2,700 -1,154 Descending FlightAware ADS-B
Mon 12:26:24 AM 33.9510 -118.2510 264° West 199 229 2,200 -1,000 Descending FlightAware ADS-B
Mon 12:27:08 AM 33.9460 -118.2950 262° West 170 196 1,500 -870 Descending FlightAware ADS-B
Mon 12:27:33 AM 33.9440 -118.3180 264° West 158 182 1,200 -764 Descending FlightAware ADS-B
Mon 12:28:03 AM 33.9410 -118.3440 262° West 160 184 800 -750 Descending FlightAware ADS-B
Mon 12:28:13 AM 33.9400 -118.3530 262° West 152 175 700 -857 Descending FlightAware ADS-B
Mon 12:28:38 AM 33.9380 -118.3730 263° West 156 180 300 -536 Descending FlightAware ADS-B
Mon 12:29:09 AM 33.9380 -118.3790 270° West 154 177 200 -103 Descending FlightAware ADS-B
Mon 12:29:36 AM 33.9350 -118.3990 260° West 154 177 200  Level FlightAware ADS-B
Mon 12:36:00 AM 33.9333 -118.4000 270° West  Level FlightAware Approximate
Mon 12:37:00 AM 33.9425 -118.4081 270° West  Level Estimated

Login

Don't have an account? Register now (free) for customized features, flight alerts, and more!